Camargo, Spain
Current Conditions -  °F | °C
As of 3:00 PM on Tuesday 27 Jan 2015 (Local Time) from LEXJ Reporting Station
Broken Clouds Broken Clouds  
Wind Chill: 50°   Ceiling: 2600
Heat Index: 50°   Visibility: 6mi
Dew Point: 46°   Wind: 3mph
Humidity: 87%   Direction: 200°SSW
Pressure: 30.48"   Gusts: NA
Location:  43.41°N, 3.88°W
Report Text: LEXJ 271400Z 20003KT 170V270 9999 FEW016 BKN026 BKN03610/08 Q1032
Loading
Personal Weather Stations






























Interactive Weather Map New forecast layout! Learn more

10-Day Weather Forecast

Advertisements
Track Severe Weather on mobile